sensor_id;sensor_type;location;lat;lon;timestamp;P1;durP1;ratioP1;P2;durP2;ratioP2
64667;SDS011;51077;42.716;23.344;2023-08-30T00:02:02;8.13;;;5.40;;
64667;SDS011;51077;42.716;23.344;2023-08-30T00:04:28;6.13;;;4.83;;
64667;SDS011;51077;42.716;23.344;2023-08-30T00:06:53;8.10;;;5.50;;
64667;SDS011;51077;42.716;23.344;2023-08-30T00:09:19;8.67;;;5.90;;
64667;SDS011;51077;42.716;23.344;2023-08-30T00:11:44;6.87;;;4.90;;
64667;SDS011;51077;42.716;23.344;2023-08-30T00:14:10;8.33;;;5.03;;
64667;SDS011;51077;42.716;23.344;2023-08-30T00:16:35;6.03;;;4.77;;
64667;SDS011;51077;42.716;23.344;2023-08-30T00:19:01;8.30;;;5.03;;
64667;SDS011;51077;42.716;23.344;2023-08-30T00:21:26;7.53;;;5.23;;
64667;SDS011;51077;42.716;23.344;2023-08-30T00:23:52;7.90;;;5.33;;
64667;SDS011;51077;42.716;23.344;2023-08-30T00:26:18;7.67;;;4.60;;
64667;SDS011;51077;42.716;23.344;2023-08-30T00:28:43;6.97;;;4.67;;
64667;SDS011;51077;42.716;23.344;2023-08-30T00:31:08;7.40;;;4.70;;
64667;SDS011;51077;42.716;23.344;2023-08-30T00:33:34;7.67;;;4.53;;
64667;SDS011;51077;42.716;23.344;2023-08-30T00:35:59;8.60;;;5.90;;
64667;SDS011;51077;42.716;23.344;2023-08-30T00:38:28;6.20;;;4.30;;
64667;SDS011;51077;42.716;23.344;2023-08-30T00:40:53;6.97;;;4.53;;
64667;SDS011;51077;42.716;23.344;2023-08-30T00:43:19;7.40;;;5.00;;
64667;SDS011;51077;42.716;23.344;2023-08-30T00:45:45;8.27;;;4.38;;
64667;SDS011;51077;42.716;23.344;2023-08-30T00:48:12;7.07;;;4.90;;
64667;SDS011;51077;42.716;23.344;2023-08-30T00:50:38;7.22;;;4.88;;
64667;SDS011;51077;42.716;23.344;2023-08-30T00:53:04;7.70;;;4.90;;
64667;SDS011;51077;42.716;23.344;2023-08-30T00:55:32;7.88;;;5.22;;
64667;SDS011;51077;42.716;23.344;2023-08-30T00:57:59;7.28;;;5.03;;
64667;SDS011;51077;42.716;23.344;2023-08-30T01:00:27;6.50;;;4.88;;
64667;SDS011;51077;42.716;23.344;2023-08-30T01:02:56;8.63;;;5.40;;
64667;SDS011;51077;42.716;23.344;2023-08-30T01:05:22;9.40;;;5.10;;
64667;SDS011;51077;42.716;23.344;2023-08-30T01:07:48;8.55;;;5.65;;
64667;SDS011;51077;42.716;23.344;2023-08-30T01:10:14;6.28;;;4.78;;
64667;SDS011;51077;42.716;23.344;2023-08-30T01:12:41;9.10;;;4.77;;
64667;SDS011;51077;42.716;23.344;2023-08-30T01:15:11;8.25;;;5.13;;
64667;SDS011;51077;42.716;23.344;2023-08-30T01:17:41;7.07;;;4.63;;
64667;SDS011;51077;42.716;23.344;2023-08-30T01:20:08;7.18;;;5.13;;
64667;SDS011;51077;42.716;23.344;2023-08-30T01:27:59;7.63;;;4.57;;
64667;SDS011;51077;42.716;23.344;2023-08-30T01:30:28;9.30;;;4.40;;
64667;SDS011;51077;42.716;23.344;2023-08-30T01:32:55;6.45;;;4.95;;
64667;SDS011;51077;42.716;23.344;2023-08-30T01:35:21;7.43;;;4.17;;
64667;SDS011;51077;42.716;23.344;2023-08-30T01:37:48;7.38;;;4.35;;
64667;SDS011;51077;42.716;23.344;2023-08-30T01:40:15;6.38;;;4.53;;
64667;SDS011;51077;42.716;23.344;2023-08-30T01:42:42;6.47;;;4.35;;
64667;SDS011;51077;42.716;23.344;2023-08-30T01:45:10;8.00;;;4.00;;
64667;SDS011;51077;42.716;23.344;2023-08-30T01:47:38;9.07;;;4.82;;
64667;SDS011;51077;42.716;23.344;2023-08-30T01:50:05;7.60;;;4.72;;
64667;SDS011;51077;42.716;23.344;2023-08-30T01:52:32;7.15;;;4.18;;
64667;SDS011;51077;42.716;23.344;2023-08-30T01:54:58;6.53;;;4.47;;
64667;SDS011;51077;42.716;23.344;2023-08-30T01:57:23;6.53;;;4.40;;
64667;SDS011;51077;42.716;23.344;2023-08-30T01:59:49;6.90;;;4.40;;
64667;SDS011;51077;42.716;23.344;2023-08-30T02:02:14;8.07;;;4.27;;
64667;SDS011;51077;42.716;23.344;2023-08-30T02:04:39;9.37;;;4.47;;
64667;SDS011;51077;42.716;23.344;2023-08-30T02:07:08;9.10;;;4.30;;
64667;SDS011;51077;42.716;23.344;2023-08-30T02:09:49;8.73;;;4.93;;
64667;SDS011;51077;42.716;23.344;2023-08-30T02:12:22;7.22;;;4.13;;
64667;SDS011;51077;42.716;23.344;2023-08-30T02:14:50;6.32;;;4.20;;
64667;SDS011;51077;42.716;23.344;2023-08-30T02:17:17;7.63;;;4.55;;
64667;SDS011;51077;42.716;23.344;2023-08-30T02:19:44;7.20;;;4.38;;
64667;SDS011;51077;42.716;23.344;2023-08-30T02:22:10;7.40;;;4.60;;
64667;SDS011;51077;42.716;23.344;2023-08-30T02:24:37;7.13;;;4.00;;
64667;SDS011;51077;42.716;23.344;2023-08-30T02:27:02;9.93;;;4.90;;
64667;SDS011;51077;42.716;23.344;2023-08-30T02:29:27;7.57;;;4.77;;
64667;SDS011;51077;42.716;23.344;2023-08-30T02:31:53;6.23;;;4.40;;
64667;SDS011;51077;42.716;23.344;2023-08-30T02:34:18;7.90;;;4.67;;
64667;SDS011;51077;42.716;23.344;2023-08-30T02:36:44;6.30;;;4.63;;
64667;SDS011;51077;42.716;23.344;2023-08-30T02:39:09;7.43;;;4.63;;
64667;SDS011;51077;42.716;23.344;2023-08-30T02:41:36;8.05;;;4.40;;
64667;SDS011;51077;42.716;23.344;2023-08-30T02:44:02;8.80;;;5.20;;
64667;SDS011;51077;42.716;23.344;2023-08-30T02:46:28;7.47;;;4.70;;
64667;SDS011;51077;42.716;23.344;2023-08-30T02:48:53;5.27;;;4.10;;
64667;SDS011;51077;42.716;23.344;2023-08-30T02:51:20;6.95;;;5.15;;
64667;SDS011;51077;42.716;23.344;2023-08-30T02:53:45;7.00;;;4.47;;
64667;SDS011;51077;42.716;23.344;2023-08-30T02:56:11;7.93;;;4.67;;
64667;SDS011;51077;42.716;23.344;2023-08-30T02:58:36;7.43;;;4.63;;
64667;SDS011;51077;42.716;23.344;2023-08-30T03:01:01;8.97;;;5.40;;
64667;SDS011;51077;42.716;23.344;2023-08-30T03:03:27;7.57;;;5.00;;
64667;SDS011;51077;42.716;23.344;2023-08-30T03:05:53;8.73;;;4.87;;
64667;SDS011;51077;42.716;23.344;2023-08-30T03:08:18;5.43;;;4.23;;
64667;SDS011;51077;42.716;23.344;2023-08-30T03:10:44;7.60;;;4.70;;
64667;SDS011;51077;42.716;23.344;2023-08-30T03:13:09;9.53;;;5.40;;
64667;SDS011;51077;42.716;23.344;2023-08-30T03:15:34;7.47;;;5.43;;
64667;SDS011;51077;42.716;23.344;2023-08-30T03:18:00;6.63;;;5.03;;
64667;SDS011;51077;42.716;23.344;2023-08-30T03:20:26;7.93;;;5.50;;
64667;SDS011;51077;42.716;23.344;2023-08-30T03:22:55;8.82;;;5.85;;
64667;SDS011;51077;42.716;23.344;2023-08-30T03:25:21;8.43;;;5.60;;
64667;SDS011;51077;42.716;23.344;2023-08-30T03:27:46;9.00;;;5.40;;
64667;SDS011;51077;42.716;23.344;2023-08-30T03:30:12;6.93;;;5.23;;
64667;SDS011;51077;42.716;23.344;2023-08-30T03:32:37;8.93;;;5.80;;
64667;SDS011;51077;42.716;23.344;2023-08-30T03:35:03;7.50;;;5.20;;
64667;SDS011;51077;42.716;23.344;2023-08-30T03:37:29;6.93;;;5.20;;
64667;SDS011;51077;42.716;23.344;2023-08-30T03:39:54;8.90;;;6.30;;
64667;SDS011;51077;42.716;23.344;2023-08-30T03:42:20;11.30;;;5.40;;
64667;SDS011;51077;42.716;23.344;2023-08-30T03:44:45;11.83;;;6.73;;
64667;SDS011;51077;42.716;23.344;2023-08-30T03:47:10;8.43;;;5.67;;
64667;SDS011;51077;42.716;23.344;2023-08-30T03:49:36;10.10;;;5.83;;
64667;SDS011;51077;42.716;23.344;2023-08-30T03:52:01;8.87;;;5.13;;
64667;SDS011;51077;42.716;23.344;2023-08-30T03:54:27;8.07;;;5.83;;
64667;SDS011;51077;42.716;23.344;2023-08-30T03:56:52;10.20;;;6.10;;
64667;SDS011;51077;42.716;23.344;2023-08-30T03:59:18;7.03;;;5.43;;
64667;SDS011;51077;42.716;23.344;2023-08-30T04:01:43;9.07;;;5.93;;
64667;SDS011;51077;42.716;23.344;2023-08-30T04:04:10;8.73;;;5.82;;
64667;SDS011;51077;42.716;23.344;2023-08-30T04:06:35;9.00;;;5.93;;
64667;SDS011;51077;42.716;23.344;2023-08-30T04:09:01;11.97;;;6.77;;
64667;SDS011;51077;42.716;23.344;2023-08-30T04:11:26;8.93;;;6.30;;
64667;SDS011;51077;42.716;23.344;2023-08-30T04:13:51;9.83;;;6.07;;
64667;SDS011;51077;42.716;23.344;2023-08-30T04:16:17;8.95;;;6.10;;
64667;SDS011;51077;42.716;23.344;2023-08-30T04:18:43;10.57;;;6.03;;
64667;SDS011;51077;42.716;23.344;2023-08-30T04:21:08;11.40;;;5.90;;
64667;SDS011;51077;42.716;23.344;2023-08-30T04:23:34;11.67;;;6.40;;
64667;SDS011;51077;42.716;23.344;2023-08-30T04:26:00;8.93;;;5.90;;
64667;SDS011;51077;42.716;23.344;2023-08-30T04:28:25;7.10;;;5.30;;
64667;SDS011;51077;42.716;23.344;2023-08-30T04:30:55;10.30;;;5.57;;
64667;SDS011;51077;42.716;23.344;2023-08-30T04:33:21;12.45;;;6.05;;
64667;SDS011;51077;42.716;23.344;2023-08-30T04:35:51;9.50;;;5.70;;
64667;SDS011;51077;42.716;23.344;2023-08-30T04:38:20;7.80;;;5.32;;
64667;SDS011;51077;42.716;23.344;2023-08-30T04:40:46;8.93;;;5.40;;
64667;SDS011;51077;42.716;23.344;2023-08-30T04:43:12;7.88;;;5.00;;
64667;SDS011;51077;42.716;23.344;2023-08-30T04:45:37;8.13;;;5.97;;
64667;SDS011;51077;42.716;23.344;2023-08-30T04:48:03;8.77;;;5.70;;
64667;SDS011;51077;42.716;23.344;2023-08-30T04:50:29;9.20;;;5.85;;
64667;SDS011;51077;42.716;23.344;2023-08-30T04:52:55;7.93;;;6.00;;
64667;SDS011;51077;42.716;23.344;2023-08-30T04:55:21;9.37;;;6.10;;
64667;SDS011;51077;42.716;23.344;2023-08-30T04:57:46;8.90;;;5.87;;
64667;SDS011;51077;42.716;23.344;2023-08-30T05:00:13;11.23;;;6.43;;
64667;SDS011;51077;42.716;23.344;2023-08-30T05:02:39;10.10;;;5.90;;
64667;SDS011;51077;42.716;23.344;2023-08-30T05:05:05;11.73;;;6.47;;
64667;SDS011;51077;42.716;23.344;2023-08-30T05:07:31;10.80;;;6.50;;
64667;SDS011;51077;42.716;23.344;2023-08-30T05:09:56;12.83;;;5.73;;
64667;SDS011;51077;42.716;23.344;2023-08-30T05:12:22;11.80;;;5.27;;
64667;SDS011;51077;42.716;23.344;2023-08-30T05:14:47;11.23;;;5.40;;
64667;SDS011;51077;42.716;23.344;2023-08-30T05:17:13;8.70;;;5.27;;
64667;SDS011;51077;42.716;23.344;2023-08-30T05:19:38;9.50;;;5.63;;
64667;SDS011;51077;42.716;23.344;2023-08-30T05:22:03;11.60;;;5.50;;
64667;SDS011;51077;42.716;23.344;2023-08-30T05:24:29;8.93;;;5.27;;
64667;SDS011;51077;42.716;23.344;2023-08-30T05:26:54;9.20;;;5.97;;
64667;SDS011;51077;42.716;23.344;2023-08-30T05:29:20;8.53;;;5.10;;
64667;SDS011;51077;42.716;23.344;2023-08-30T05:31:45;11.20;;;4.90;;
64667;SDS011;51077;42.716;23.344;2023-08-30T05:34:10;8.07;;;4.57;;
64667;SDS011;51077;42.716;23.344;2023-08-30T05:36:36;11.87;;;4.67;;
64667;SDS011;51077;42.716;23.344;2023-08-30T05:39:01;10.30;;;4.47;;
64667;SDS011;51077;42.716;23.344;2023-08-30T05:41:28;13.05;;;4.22;;
64667;SDS011;51077;42.716;23.344;2023-08-30T05:43:54;14.03;;;5.17;;
64667;SDS011;51077;42.716;23.344;2023-08-30T05:46:19;9.07;;;4.43;;
64667;SDS011;51077;42.716;23.344;2023-08-30T05:48:44;8.87;;;3.90;;
64667;SDS011;51077;42.716;23.344;2023-08-30T05:51:10;10.67;;;3.40;;
64667;SDS011;51077;42.716;23.344;2023-08-30T05:53:35;7.40;;;3.23;;
64667;SDS011;51077;42.716;23.344;2023-08-30T05:56:01;8.97;;;3.77;;
64667;SDS011;51077;42.716;23.344;2023-08-30T05:58:26;8.40;;;3.80;;
64667;SDS011;51077;42.716;23.344;2023-08-30T06:00:52;10.80;;;3.63;;
64667;SDS011;51077;42.716;23.344;2023-08-30T06:03:17;8.73;;;3.60;;
64667;SDS011;51077;42.716;23.344;2023-08-30T06:05:43;7.83;;;3.07;;
64667;SDS011;51077;42.716;23.344;2023-08-30T06:08:08;7.80;;;3.53;;
64667;SDS011;51077;42.716;23.344;2023-08-30T06:10:35;8.60;;;3.70;;
64667;SDS011;51077;42.716;23.344;2023-08-30T06:13:00;5.82;;;3.38;;
64667;SDS011;51077;42.716;23.344;2023-08-30T06:15:27;7.25;;;3.17;;
64667;SDS011;51077;42.716;23.344;2023-08-30T06:17:53;7.38;;;3.33;;
64667;SDS011;51077;42.716;23.344;2023-08-30T06:20:19;5.37;;;3.10;;
64667;SDS011;51077;42.716;23.344;2023-08-30T06:22:44;6.30;;;3.50;;
64667;SDS011;51077;42.716;23.344;2023-08-30T06:25:09;8.33;;;4.03;;
64667;SDS011;51077;42.716;23.344;2023-08-30T06:27:40;5.93;;;3.37;;
64667;SDS011;51077;42.716;23.344;2023-08-30T06:30:08;8.50;;;3.88;;
64667;SDS011;51077;42.716;23.344;2023-08-30T06:32:34;7.30;;;3.40;;
64667;SDS011;51077;42.716;23.344;2023-08-30T06:35:00;10.53;;;3.53;;
64667;SDS011;51077;42.716;23.344;2023-08-30T06:37:25;7.90;;;3.67;;
64667;SDS011;51077;42.716;23.344;2023-08-30T06:39:51;8.63;;;3.73;;
64667;SDS011;51077;42.716;23.344;2023-08-30T06:42:16;10.93;;;4.00;;
64667;SDS011;51077;42.716;23.344;2023-08-30T06:44:42;8.00;;;3.40;;
64667;SDS011;51077;42.716;23.344;2023-08-30T06:47:07;7.93;;;3.50;;
64667;SDS011;51077;42.716;23.344;2023-08-30T06:49:33;6.87;;;3.63;;
64667;SDS011;51077;42.716;23.344;2023-08-30T06:51:59;6.57;;;3.10;;
64667;SDS011;51077;42.716;23.344;2023-08-30T06:54:28;6.60;;;3.70;;
64667;SDS011;51077;42.716;23.344;2023-08-30T06:57:01;10.38;;;4.45;;
64667;SDS011;51077;42.716;23.344;2023-08-30T06:59:27;10.50;;;3.53;;
64667;SDS011;51077;42.716;23.344;2023-08-30T07:01:53;6.43;;;3.47;;
64667;SDS011;51077;42.716;23.344;2023-08-30T07:04:18;6.17;;;3.20;;
64667;SDS011;51077;42.716;23.344;2023-08-30T07:06:44;9.40;;;3.50;;
64667;SDS011;51077;42.716;23.344;2023-08-30T07:09:09;11.03;;;3.87;;
64667;SDS011;51077;42.716;23.344;2023-08-30T07:11:37;8.85;;;3.80;;
64667;SDS011;51077;42.716;23.344;2023-08-30T07:14:02;9.45;;;3.33;;
64667;SDS011;51077;42.716;23.344;2023-08-30T07:16:28;8.07;;;3.42;;
64667;SDS011;51077;42.716;23.344;2023-08-30T07:18:54;8.23;;;3.30;;
64667;SDS011;51077;42.716;23.344;2023-08-30T07:21:19;7.00;;;3.27;;
64667;SDS011;51077;42.716;23.344;2023-08-30T07:23:44;8.50;;;3.00;;
64667;SDS011;51077;42.716;23.344;2023-08-30T07:26:10;9.00;;;3.40;;
64667;SDS011;51077;42.716;23.344;2023-08-30T07:28:35;10.47;;;3.40;;
64667;SDS011;51077;42.716;23.344;2023-08-30T07:31:01;6.47;;;3.47;;
64667;SDS011;51077;42.716;23.344;2023-08-30T07:33:30;8.40;;;3.83;;
64667;SDS011;51077;42.716;23.344;2023-08-30T07:35:55;6.07;;;3.20;;
64667;SDS011;51077;42.716;23.344;2023-08-30T07:38:21;6.83;;;3.40;;
64667;SDS011;51077;42.716;23.344;2023-08-30T07:40:47;6.70;;;3.33;;
64667;SDS011;51077;42.716;23.344;2023-08-30T07:43:12;5.77;;;2.97;;
64667;SDS011;51077;42.716;23.344;2023-08-30T07:45:38;8.07;;;3.57;;
64667;SDS011;51077;42.716;23.344;2023-08-30T07:48:03;5.60;;;3.00;;
64667;SDS011;51077;42.716;23.344;2023-08-30T07:50:29;10.47;;;4.27;;
64667;SDS011;51077;42.716;23.344;2023-08-30T07:52:54;7.87;;;3.00;;
64667;SDS011;51077;42.716;23.344;2023-08-30T07:55:19;7.70;;;4.00;;
64667;SDS011;51077;42.716;23.344;2023-08-30T07:57:45;5.77;;;2.93;;
64667;SDS011;51077;42.716;23.344;2023-08-30T08:00:11;6.97;;;3.10;;
64667;SDS011;51077;42.716;23.344;2023-08-30T08:02:39;5.63;;;3.07;;
64667;SDS011;51077;42.716;23.344;2023-08-30T08:05:04;5.07;;;2.80;;
64667;SDS011;51077;42.716;23.344;2023-08-30T08:07:30;7.57;;;2.93;;
64667;SDS011;51077;42.716;23.344;2023-08-30T08:09:56;8.00;;;3.90;;
64667;SDS011;51077;42.716;23.344;2023-08-30T08:12:22;7.93;;;3.17;;
64667;SDS011;51077;42.716;23.344;2023-08-30T08:14:47;6.93;;;3.20;;
64667;SDS011;51077;42.716;23.344;2023-08-30T08:17:13;7.30;;;3.03;;
64667;SDS011;51077;42.716;23.344;2023-08-30T08:19:38;3.97;;;2.70;;
64667;SDS011;51077;42.716;23.344;2023-08-30T08:22:05;5.87;;;2.93;;
64667;SDS011;51077;42.716;23.344;2023-08-30T08:24:31;5.60;;;2.83;;
64667;SDS011;51077;42.716;23.344;2023-08-30T08:26:56;6.17;;;2.60;;
64667;SDS011;51077;42.716;23.344;2023-08-30T08:29:21;5.57;;;3.23;;
64667;SDS011;51077;42.716;23.344;2023-08-30T08:31:47;5.13;;;2.70;;
64667;SDS011;51077;42.716;23.344;2023-08-30T08:34:13;6.00;;;2.57;;
64667;SDS011;51077;42.716;23.344;2023-08-30T08:36:39;6.10;;;2.57;;
64667;SDS011;51077;42.716;23.344;2023-08-30T08:39:05;6.00;;;2.53;;
64667;SDS011;51077;42.716;23.344;2023-08-30T08:41:34;8.67;;;3.50;;
64667;SDS011;51077;42.716;23.344;2023-08-30T08:44:07;8.17;;;2.70;;
64667;SDS011;51077;42.716;23.344;2023-08-30T08:46:37;6.20;;;2.40;;
64667;SDS011;51077;42.716;23.344;2023-08-30T08:49:21;5.90;;;2.00;;
64667;SDS011;51077;42.716;23.344;2023-08-30T08:51:47;7.53;;;3.07;;
64667;SDS011;51077;42.716;23.344;2023-08-30T08:54:14;6.23;;;2.30;;
64667;SDS011;51077;42.716;23.344;2023-08-30T08:56:39;5.87;;;2.53;;
64667;SDS011;51077;42.716;23.344;2023-08-30T08:59:05;6.13;;;2.30;;
64667;SDS011;51077;42.716;23.344;2023-08-30T09:01:33;5.40;;;2.33;;
64667;SDS011;51077;42.716;23.344;2023-08-30T09:04:01;6.37;;;2.70;;
64667;SDS011;51077;42.716;23.344;2023-08-30T09:06:32;6.23;;;2.20;;
64667;SDS011;51077;42.716;23.344;2023-08-30T09:08:58;6.03;;;2.53;;
64667;SDS011;51077;42.716;23.344;2023-08-30T09:11:23;6.63;;;2.50;;
64667;SDS011;51077;42.716;23.344;2023-08-30T09:13:49;4.73;;;2.77;;
64667;SDS011;51077;42.716;23.344;2023-08-30T09:16:14;5.10;;;2.80;;
64667;SDS011;51077;42.716;23.344;2023-08-30T09:18:41;6.27;;;2.70;;
64667;SDS011;51077;42.716;23.344;2023-08-30T09:21:07;5.70;;;2.30;;
64667;SDS011;51077;42.716;23.344;2023-08-30T09:23:33;5.47;;;2.47;;
64667;SDS011;51077;42.716;23.344;2023-08-30T09:25:59;8.40;;;2.73;;
64667;SDS011;51077;42.716;23.344;2023-08-30T09:28:25;4.30;;;2.37;;
64667;SDS011;51077;42.716;23.344;2023-08-30T09:30:51;5.10;;;2.60;;
64667;SDS011;51077;42.716;23.344;2023-08-30T09:33:30;3.60;;;2.27;;
64667;SDS011;51077;42.716;23.344;2023-08-30T09:35:57;5.90;;;2.70;;
64667;SDS011;51077;42.716;23.344;2023-08-30T09:38:23;4.80;;;2.30;;
64667;SDS011;51077;42.716;23.344;2023-08-30T09:40:48;5.63;;;2.60;;
64667;SDS011;51077;42.716;23.344;2023-08-30T09:43:14;5.90;;;2.40;;
64667;SDS011;51077;42.716;23.344;2023-08-30T09:45:43;6.33;;;2.40;;
64667;SDS011;51077;42.716;23.344;2023-08-30T09:48:09;4.20;;;2.40;;
64667;SDS011;51077;42.716;23.344;2023-08-30T09:50:35;3.87;;;2.03;;
64667;SDS011;51077;42.716;23.344;2023-08-30T09:53:03;4.50;;;2.40;;
64667;SDS011;51077;42.716;23.344;2023-08-30T09:55:31;3.90;;;2.33;;
64667;SDS011;51077;42.716;23.344;2023-08-30T09:57:58;6.63;;;2.60;;
64667;SDS011;51077;42.716;23.344;2023-08-30T10:00:24;5.43;;;2.30;;
64667;SDS011;51077;42.716;23.344;2023-08-30T10:02:50;6.20;;;2.77;;
64667;SDS011;51077;42.716;23.344;2023-08-30T10:05:15;6.17;;;2.77;;
64667;SDS011;51077;42.716;23.344;2023-08-30T10:07:42;4.87;;;2.70;;
64667;SDS011;51077;42.716;23.344;2023-08-30T10:10:09;4.73;;;2.80;;
64667;SDS011;51077;42.716;23.344;2023-08-30T10:12:35;4.90;;;2.30;;
64667;SDS011;51077;42.716;23.344;2023-08-30T10:15:02;5.17;;;2.70;;
64667;SDS011;51077;42.716;23.344;2023-08-30T10:17:28;5.37;;;2.67;;
64667;SDS011;51077;42.716;23.344;2023-08-30T10:19:57;5.50;;;2.60;;
64667;SDS011;51077;42.716;23.344;2023-08-30T10:22:24;5.87;;;2.93;;
64667;SDS011;51077;42.716;23.344;2023-08-30T10:24:58;5.13;;;2.70;;
64667;SDS011;51077;42.716;23.344;2023-08-30T10:27:26;4.93;;;2.67;;
64667;SDS011;51077;42.716;23.344;2023-08-30T10:29:53;4.87;;;2.50;;
64667;SDS011;51077;42.716;23.344;2023-08-30T10:32:20;4.57;;;2.80;;
64667;SDS011;51077;42.716;23.344;2023-08-30T10:34:49;4.70;;;2.67;;
64667;SDS011;51077;42.716;23.344;2023-08-30T10:37:21;5.83;;;2.93;;
64667;SDS011;51077;42.716;23.344;2023-08-30T10:39:49;6.78;;;3.20;;
64667;SDS011;51077;42.716;23.344;2023-08-30T10:42:15;7.07;;;3.10;;
64667;SDS011;51077;42.716;23.344;2023-08-30T10:47:53;5.33;;;2.50;;
64667;SDS011;51077;42.716;23.344;2023-08-30T10:50:09;5.83;;;2.90;;
64667;SDS011;51077;42.716;23.344;2023-08-30T10:52:35;5.67;;;3.13;;
64667;SDS011;51077;42.716;23.344;2023-08-30T10:55:05;6.63;;;3.00;;
64667;SDS011;51077;42.716;23.344;2023-08-30T10:57:33;6.43;;;3.00;;
64667;SDS011;51077;42.716;23.344;2023-08-30T11:00:09;6.97;;;3.40;;
64667;SDS011;51077;42.716;23.344;2023-08-30T11:02:35;7.77;;;2.90;;
64667;SDS011;51077;42.716;23.344;2023-08-30T11:05:02;5.60;;;3.07;;
64667;SDS011;51077;42.716;23.344;2023-08-30T11:07:28;5.63;;;3.07;;
64667;SDS011;51077;42.716;23.344;2023-08-30T11:09:54;6.17;;;3.73;;
64667;SDS011;51077;42.716;23.344;2023-08-30T11:12:20;6.33;;;3.37;;
64667;SDS011;51077;42.716;23.344;2023-08-30T11:14:47;6.27;;;3.50;;
64667;SDS011;51077;42.716;23.344;2023-08-30T11:17:15;7.37;;;3.47;;
64667;SDS011;51077;42.716;23.344;2023-08-30T11:19:42;6.43;;;3.20;;
64667;SDS011;51077;42.716;23.344;2023-08-30T11:22:08;5.10;;;3.37;;
64667;SDS011;51077;42.716;23.344;2023-08-30T11:24:34;6.67;;;3.53;;
64667;SDS011;51077;42.716;23.344;2023-08-30T11:26:59;5.87;;;3.20;;
64667;SDS011;51077;42.716;23.344;2023-08-30T11:29:26;7.80;;;3.43;;
64667;SDS011;51077;42.716;23.344;2023-08-30T11:31:51;7.53;;;3.47;;
64667;SDS011;51077;42.716;23.344;2023-08-30T11:34:19;5.23;;;3.30;;
64667;SDS011;51077;42.716;23.344;2023-08-30T11:36:47;6.90;;;3.13;;
64667;SDS011;51077;42.716;23.344;2023-08-30T11:39:13;6.13;;;3.13;;
64667;SDS011;51077;42.716;23.344;2023-08-30T11:41:38;8.40;;;3.47;;
64667;SDS011;51077;42.716;23.344;2023-08-30T11:44:04;6.60;;;3.27;;
64667;SDS011;51077;42.716;23.344;2023-08-30T11:46:30;5.07;;;3.07;;
64667;SDS011;51077;42.716;23.344;2023-08-30T11:48:57;5.77;;;3.03;;
64667;SDS011;51077;42.716;23.344;2023-08-30T11:51:22;4.93;;;3.07;;
64667;SDS011;51077;42.716;23.344;2023-08-30T11:53:48;5.03;;;2.90;;
64667;SDS011;51077;42.716;23.344;2023-08-30T11:56:15;8.87;;;3.63;;
64667;SDS011;51077;42.716;23.344;2023-08-30T11:58:42;5.77;;;2.93;;
64667;SDS011;51077;42.716;23.344;2023-08-30T12:01:08;5.70;;;3.50;;
64667;SDS011;51077;42.716;23.344;2023-08-30T12:03:34;5.53;;;2.97;;
64667;SDS011;51077;42.716;23.344;2023-08-30T12:06:00;6.93;;;3.00;;
64667;SDS011;51077;42.716;23.344;2023-08-30T12:08:27;5.23;;;3.13;;
64667;SDS011;51077;42.716;23.344;2023-08-30T12:10:54;6.00;;;3.43;;
64667;SDS011;51077;42.716;23.344;2023-08-30T12:13:27;7.20;;;3.40;;
64667;SDS011;51077;42.716;23.344;2023-08-30T12:15:59;5.87;;;3.40;;
64667;SDS011;51077;42.716;23.344;2023-08-30T12:18:27;5.53;;;3.57;;
64667;SDS011;51077;42.716;23.344;2023-08-30T12:20:58;8.00;;;3.50;;
64667;SDS011;51077;42.716;23.344;2023-08-30T12:23:25;5.80;;;3.23;;
64667;SDS011;51077;42.716;23.344;2023-08-30T12:26:02;5.57;;;3.47;;
64667;SDS011;51077;42.716;23.344;2023-08-30T12:28:30;4.93;;;3.30;;
64667;SDS011;51077;42.716;23.344;2023-08-30T12:30:56;6.03;;;3.83;;
64667;SDS011;51077;42.716;23.344;2023-08-30T12:33:22;7.43;;;3.70;;
64667;SDS011;51077;42.716;23.344;2023-08-30T12:35:50;7.20;;;2.93;;
64667;SDS011;51077;42.716;23.344;2023-08-30T12:38:15;6.27;;;3.53;;
64667;SDS011;51077;42.716;23.344;2023-08-30T12:40:47;5.20;;;3.70;;
64667;SDS011;51077;42.716;23.344;2023-08-30T12:43:14;6.63;;;3.60;;
64667;SDS011;51077;42.716;23.344;2023-08-30T12:45:40;5.33;;;4.00;;
64667;SDS011;51077;42.716;23.344;2023-08-30T12:48:09;6.30;;;4.03;;
64667;SDS011;51077;42.716;23.344;2023-08-30T12:50:36;4.90;;;3.77;;
64667;SDS011;51077;42.716;23.344;2023-08-30T12:53:03;6.70;;;3.63;;
64667;SDS011;51077;42.716;23.344;2023-08-30T12:55:29;4.57;;;3.40;;
64667;SDS011;51077;42.716;23.344;2023-08-30T12:57:54;5.70;;;3.47;;
64667;SDS011;51077;42.716;23.344;2023-08-30T13:00:20;7.17;;;3.70;;
64667;SDS011;51077;42.716;23.344;2023-08-30T13:02:45;6.47;;;3.40;;
64667;SDS011;51077;42.716;23.344;2023-08-30T13:05:10;4.97;;;3.20;;
64667;SDS011;51077;42.716;23.344;2023-08-30T13:07:36;6.53;;;4.27;;
64667;SDS011;51077;42.716;23.344;2023-08-30T13:10:02;4.93;;;3.50;;
64667;SDS011;51077;42.716;23.344;2023-08-30T13:12:27;6.07;;;3.53;;
64667;SDS011;51077;42.716;23.344;2023-08-30T13:14:53;5.80;;;3.70;;
64667;SDS011;51077;42.716;23.344;2023-08-30T13:17:18;7.87;;;3.80;;
64667;SDS011;51077;42.716;23.344;2023-08-30T13:19:44;8.03;;;3.70;;
64667;SDS011;51077;42.716;23.344;2023-08-30T13:22:09;5.67;;;3.40;;
64667;SDS011;51077;42.716;23.344;2023-08-30T13:24:35;6.10;;;3.40;;
64667;SDS011;51077;42.716;23.344;2023-08-30T13:27:01;5.80;;;3.53;;
64667;SDS011;51077;42.716;23.344;2023-08-30T13:29:27;6.83;;;3.40;;
64667;SDS011;51077;42.716;23.344;2023-08-30T13:31:52;4.80;;;3.10;;
64667;SDS011;51077;42.716;23.344;2023-08-30T13:34:18;5.63;;;3.27;;
64667;SDS011;51077;42.716;23.344;2023-08-30T13:36:43;5.67;;;3.57;;
64667;SDS011;51077;42.716;23.344;2023-08-30T13:39:09;4.37;;;3.13;;
64667;SDS011;51077;42.716;23.344;2023-08-30T13:41:34;5.53;;;3.00;;
64667;SDS011;51077;42.716;23.344;2023-08-30T13:44:01;4.23;;;3.00;;
64667;SDS011;51077;42.716;23.344;2023-08-30T13:46:28;5.03;;;2.90;;
64667;SDS011;51077;42.716;23.344;2023-08-30T13:48:54;5.83;;;3.47;;
64667;SDS011;51077;42.716;23.344;2023-08-30T13:51:21;5.83;;;3.10;;
64667;SDS011;51077;42.716;23.344;2023-08-30T13:53:48;5.10;;;3.20;;
64667;SDS011;51077;42.716;23.344;2023-08-30T13:56:13;5.90;;;3.03;;
64667;SDS011;51077;42.716;23.344;2023-08-30T13:58:38;5.87;;;3.23;;
64667;SDS011;51077;42.716;23.344;2023-08-30T14:01:04;6.27;;;3.50;;
64667;SDS011;51077;42.716;23.344;2023-08-30T14:03:30;6.17;;;3.47;;
64667;SDS011;51077;42.716;23.344;2023-08-30T14:05:55;6.90;;;3.43;;
64667;SDS011;51077;42.716;23.344;2023-08-30T14:08:21;5.23;;;3.33;;
64667;SDS011;51077;42.716;23.344;2023-08-30T14:10:46;6.70;;;3.27;;
64667;SDS011;51077;42.716;23.344;2023-08-30T14:13:12;6.07;;;3.43;;
64667;SDS011;51077;42.716;23.344;2023-08-30T14:15:37;6.90;;;3.50;;
64667;SDS011;51077;42.716;23.344;2023-08-30T14:18:03;5.07;;;3.40;;
64667;SDS011;51077;42.716;23.344;2023-08-30T14:20:28;5.07;;;2.90;;
64667;SDS011;51077;42.716;23.344;2023-08-30T14:22:54;7.43;;;3.03;;
64667;SDS011;51077;42.716;23.344;2023-08-30T14:25:19;6.23;;;2.73;;
64667;SDS011;51077;42.716;23.344;2023-08-30T14:27:45;5.87;;;2.97;;
64667;SDS011;51077;42.716;23.344;2023-08-30T14:30:10;7.43;;;3.23;;
64667;SDS011;51077;42.716;23.344;2023-08-30T14:32:36;5.33;;;3.27;;
64667;SDS011;51077;42.716;23.344;2023-08-30T14:35:04;5.27;;;3.40;;
64667;SDS011;51077;42.716;23.344;2023-08-30T14:37:30;5.07;;;2.60;;